Airfield :
LOGIN :

Register | Disclaimer

   EN    FR    IT 

 










Legend :    VFR   Marginal VFR   IFR   Intensive IFR   Very Intensive IFR
Visi :
Ceiling :
>= 8 km
>= 3000ft
5 to 8 km
1000 to 3000 ft
1500m to 5 km
500 to 1000 ft
800 to 1500m
200 to 500 ft
< 800m
< 200 ft
Symbols :   Thunderstorms  Fog  Heavy snow  Heavy precipitations  Wind > 20 kt
SIGMETs :     Misc.  Thunderstorms  Icing  Turbulence  Mountain Waves  Volcanic Ashes






- Airport Elevation : 286 ft
- IATA code : FFD


EGVA - RAF Fairford

CURRENT METAR :
  • 032156Z AUTO 22015G21KT 9999 OVC011 15/14 A2988 RMK AO2 SLP121 T01470136 $

EXPIRED METARs :
  • 032056Z AUTO 22015G23KT 9999 OVC012 14/13 A2989 RMK AO2 SLP124 60003 T01440133 55010 $
  • 031956Z AUTO 22015KT 9999 OVC012 14/13 A2990 RMK AO2 PK WND 22026/10 DZE00RAB00E31DZB31E33 SLP128 P0001 T01430133 $
  • 031933Z AUTO 22014G21KT 9999 OVC011 14/13 A2990 RMK AO2 DZE00RAB00E31DZB31E33 SLP128 $

Expired Forecast.



MET'MAP, your aeronautical weather chart ! - Copyright ORBIFLY December 2007 - Disclaimer

ORBIFLY MET'MAP TEAM :

Programming & Development : Alexandra Zaïnal
Concept & original design : Baudouin d'Aumeries
Assistance for programming : Marc-Olivier Méhu
Technical & hardware support : Manuel Goepfert

Contact : metmap@orbifly.com




SOURCES & CREDITS :

   NOAA